トロンハイム の空港の天気 - METARとTAF

Trondheim / Vaernes ( ENVA / TRD ) - ノルウェー ヌール・トロンデラーグ県、Stjordal
飛行場実況気象(Metar)
観測時間04/19 13:20 CEST (04/19 11:20 UTC)
風向・風速東南東 4m/s
視程10km以上
天気現象
なし
気温14℃
湿度59%
気圧1024hPa
METARENVA 191120Z 12007KT 090V150 CAVOK 14/06 Q1024 NOSIG RMK WIND 670FT 15011KT
過去の天気等 Google飛行場航空写真 Wunderground天気予報

過去48時間のMETAR

飛行場予報(TAF)
発表時間: -
20日0時 CEST ~ 20日4時 CEST に徐々に
全天の8割程度の雲 雲底高度 430m
20日2時 CEST ~ 20日8時 CEST に一時的に
視程4,000m
天気現象弱い雨 もや
全天の8割程度の雲 雲底高度 240m
ENVA 1912/2012 12007KT CAVOK
BECMG 1922/2002 BKN014
TEMPO 2000/2006 4000 -RA BR BKN008